Time,TemperatureF,DewpointF,PressureIn,WindDirection,WindDirectionDegrees,WindSpeedMPH,WindSpeedGustMPH,Humidity,HourlyPrecipIn,Conditions,Clouds,dailyrainin,SoftwareType,DateUTC
2013-08-24 00:01:00,61.0,55.5,30.12,SE,135,0.0,0.0,82,0.00,,,0.00,WUHU21623XXSP,2013-08-24 05:01:00,
2013-08-24 00:06:00,60.6,55.1,30.12,SE,135,0.0,0.0,82,0.00,,,0.00,WUHU21623XXSP,2013-08-24 05:06:00,
2013-08-24 00:11:00,60.6,55.1,30.13,ESE,112,0.0,2.0,82,0.00,,,0.00,WUHU21623XXSP,2013-08-24 05:11:00,
2013-08-24 00:16:00,60.6,55.1,30.12,East,90,0.0,2.2,82,0.00,,,0.00,WUHU21623XXSP,2013-08-24 05:16:00,
2013-08-24 00:21:00,60.4,54.6,30.12,SE,135,0.0,2.2,81,0.00,,,0.00,WUHU21623XXSP,2013-08-24 05:21:00,
2013-08-24 00:26:00,60.4,54.6,30.13,ESE,112,0.0,1.3,81,0.00,,,0.00,WUHU21623XXSP,2013-08-24 05:26:00,
2013-08-24 00:31:00,60.6,54.8,30.13,SSE,157,0.0,0.0,81,0.00,,,0.00,WUHU21623XXSP,2013-08-24 05:31:00,
2013-08-24 00:36:00,60.6,54.8,30.13,SE,135,0.0,1.1,81,0.00,,,0.00,WUHU21623XXSP,2013-08-24 05:36:00,
2013-08-24 00:41:00,60.6,54.5,30.13,ESE,112,0.0,4.7,80,0.00,,,0.00,WUHU21623XXSP,2013-08-24 05:41:00,
2013-08-24 00:46:00,60.4,54.3,30.13,ESE,112,0.0,4.7,80,0.00,,,0.00,WUHU21623XXSP,2013-08-24 05:46:00,
2013-08-24 00:51:00,60.4,54.3,30.13,ESE,112,0.0,2.0,80,0.00,,,0.00,WUHU21623XXSP,2013-08-24 05:51:00,
2013-08-24 00:56:00,60.3,54.1,30.13,SE,135,0.0,0.0,80,0.00,,,0.00,WUHU21623XXSP,2013-08-24 05:56:00,
2013-08-24 01:01:00,60.1,54.0,30.13,ESE,112,0.0,0.0,80,0.00,,,0.00,WUHU21623XXSP,2013-08-24 06:01:00,
2013-08-24 01:06:00,59.9,53.8,30.13,SE,135,0.0,0.0,80,0.00,,,0.00,WUHU21623XXSP,2013-08-24 06:06:00,
2013-08-24 01:11:00,59.7,53.6,30.12,SE,135,0.0,0.0,80,0.00,,,0.00,WUHU21623XXSP,2013-08-24 06:11:00,
2013-08-24 01:16:00,59.7,53.6,30.12,SE,135,0.0,0.0,80,0.00,,,0.00,WUHU21623XXSP,2013-08-24 06:16:00,
2013-08-24 01:21:00,59.7,53.6,30.13,SE,135,0.0,0.0,80,0.00,,,0.00,WUHU21623XXSP,2013-08-24 06:21:00,
2013-08-24 01:26:00,60.1,54.0,30.13,ESE,112,0.0,1.1,80,0.00,,,0.00,WUHU21623XXSP,2013-08-24 06:26:00,
2013-08-24 01:31:00,59.7,53.6,30.13,North,0,0.0,1.1,80,0.00,,,0.00,WUHU21623XXSP,2013-08-24 06:31:00,
2013-08-24 01:36:00,59.2,53.4,30.13,NNE,22,0.0,0.0,81,0.00,,,0.00,WUHU21623XXSP,2013-08-24 06:36:00,
2013-08-24 01:41:00,58.8,53.0,30.13,SE,135,0.0,0.0,81,0.00,,,0.00,WUHU21623XXSP,2013-08-24 06:41:00,
2013-08-24 01:46:00,58.3,52.8,30.13,SE,135,0.0,0.0,82,0.00,,,0.00,WUHU21623XXSP,2013-08-24 06:46:00,
2013-08-24 01:51:00,57.9,52.8,30.13,SE,135,0.0,0.0,83,0.00,,,0.00,WUHU21623XXSP,2013-08-24 06:51:00,
2013-08-24 01:56:00,57.7,52.6,30.13,East,90,0.0,0.0,83,0.00,,,0.00,WUHU21623XXSP,2013-08-24 06:56:00,
2013-08-24 02:01:00,57.4,52.2,30.13,East,90,0.0,0.0,83,0.00,,,0.00,WUHU21623XXSP,2013-08-24 07:01:00,
2013-08-24 02:09:00,57.4,52.6,30.13,East,90,0.0,0.0,84,0.00,,,0.00,WUHU21623XXSP,2013-08-24 07:09:00,
2013-08-24 02:14:00,56.5,52.0,30.13,ESE,112,0.0,0.0,85,0.00,,,0.00,WUHU21623XXSP,2013-08-24 07:14:00,
2013-08-24 02:19:00,56.8,52.3,30.13,ESE,112,0.0,0.0,85,0.00,,,0.00,WUHU21623XXSP,2013-08-24 07:19:00,
2013-08-24 02:24:00,57.0,52.5,30.13,SE,135,0.0,0.0,85,0.00,,,0.00,WUHU21623XXSP,2013-08-24 07:24:00,
2013-08-24 02:29:00,57.0,52.8,30.13,NW,315,0.0,0.0,86,0.00,,,0.00,WUHU21623XXSP,2013-08-24 07:29:00,
2013-08-24 02:34:00,56.8,52.7,30.14,NNW,337,0.0,0.0,86,0.00,,,0.00,WUHU21623XXSP,2013-08-24 07:34:00,
2013-08-24 02:39:00,56.8,52.7,30.14,NNE,22,0.0,0.0,86,0.00,,,0.00,WUHU21623XXSP,2013-08-24 07:39:00,
2013-08-24 02:44:00,56.5,52.6,30.13,ENE,67,0.0,0.0,87,0.00,,,0.00,WUHU21623XXSP,2013-08-24 07:44:00,
2013-08-24 02:49:00,56.1,52.3,30.14,SSE,157,0.0,0.0,87,0.00,,,0.00,WUHU21623XXSP,2013-08-24 07:49:00,
2013-08-24 02:54:00,56.1,52.3,30.14,SSE,157,0.0,0.0,87,0.00,,,0.00,WUHU21623XXSP,2013-08-24 07:54:00,
2013-08-24 02:59:00,55.9,52.1,30.14,SSE,157,0.0,0.0,87,0.00,,,0.00,WUHU21623XXSP,2013-08-24 07:59:00,
2013-08-24 03:04:00,55.8,52.2,30.14,NNE,22,0.0,0.0,88,0.00,,,0.00,WUHU21623XXSP,2013-08-24 08:04:00,
2013-08-24 03:09:00,55.8,52.2,30.14,ESE,112,0.0,0.0,88,0.00,,,0.00,WUHU21623XXSP,2013-08-24 08:09:00,
2013-08-24 03:14:00,55.9,52.4,30.14,SE,135,0.0,0.0,88,0.00,,,0.00,WUHU21623XXSP,2013-08-24 08:14:00,
2013-08-24 03:19:00,56.1,52.6,30.14,SE,135,0.0,0.0,88,0.00,,,0.00,WUHU21623XXSP,2013-08-24 08:19:00,
2013-08-24 03:24:00,55.9,52.4,30.14,NNE,22,0.0,0.0,88,0.00,,,0.00,WUHU21623XXSP,2013-08-24 08:24:00,
2013-08-24 03:29:00,55.9,52.4,30.15,NE,45,0.0,0.0,88,0.00,,,0.00,WUHU21623XXSP,2013-08-24 08:29:00,
2013-08-24 03:34:00,55.8,52.2,30.15,NE,45,0.0,0.0,88,0.00,,,0.00,WUHU21623XXSP,2013-08-24 08:34:00,
2013-08-24 03:39:00,55.6,52.4,30.15,NE,45,0.0,0.0,89,0.00,,,0.00,WUHU21623XXSP,2013-08-24 08:39:00,
2013-08-24 03:44:00,55.6,52.4,30.15,NE,45,0.0,0.0,89,0.00,,,0.00,WUHU21623XXSP,2013-08-24 08:44:00,
2013-08-24 03:49:00,55.6,52.4,30.15,NE,45,0.0,0.0,89,0.00,,,0.00,WUHU21623XXSP,2013-08-24 08:49:00,
2013-08-24 03:54:00,55.2,52.0,30.15,ENE,67,0.0,0.0,89,0.00,,,0.00,WUHU21623XXSP,2013-08-24 08:54:00,
2013-08-24 03:59:00,55.2,52.0,30.16,ESE,112,0.0,0.0,89,0.00,,,0.00,WUHU21623XXSP,2013-08-24 08:59:00,
2013-08-24 04:04:00,55.6,52.4,30.16,ESE,112,0.0,0.0,89,0.00,,,0.00,WUHU21623XXSP,2013-08-24 09:04:00,
2013-08-24 04:09:00,55.9,52.7,30.16,ESE,112,0.0,0.0,89,0.00,,,0.00,WUHU21623XXSP,2013-08-24 09:09:00,
2013-08-24 04:14:00,55.9,52.4,30.16,ESE,112,0.0,0.0,88,0.00,,,0.00,WUHU21623XXSP,2013-08-24 09:14:00,
2013-08-24 04:19:00,56.1,52.6,30.16,SE,135,0.0,0.0,88,0.00,,,0.00,WUHU21623XXSP,2013-08-24 09:19:00,
2013-08-24 04:24:00,56.1,52.6,30.17,ESE,112,0.0,0.0,88,0.00,,,0.00,WUHU21623XXSP,2013-08-24 09:24:00,
2013-08-24 04:29:00,56.1,52.6,30.17,SE,135,0.0,0.0,88,0.00,,,0.00,WUHU21623XXSP,2013-08-24 09:29:00,
2013-08-24 04:34:00,56.1,52.3,30.17,ESE,112,0.0,0.0,87,0.00,,,0.00,WUHU21623XXSP,2013-08-24 09:34:00,
2013-08-24 04:39:00,55.9,52.1,30.17,North,0,0.0,0.0,87,0.00,,,0.00,WUHU21623XXSP,2013-08-24 09:39:00,
2013-08-24 04:44:00,55.4,51.9,30.17,NNE,22,0.0,0.0,88,0.00,,,0.00,WUHU21623XXSP,2013-08-24 09:44:00,
2013-08-24 04:49:00,55.2,51.7,30.17,NNE,22,0.0,0.0,88,0.00,,,0.00,WUHU21623XXSP,2013-08-24 09:49:00,
2013-08-24 04:54:00,54.9,51.5,30.18,North,0,0.0,0.0,88,0.00,,,0.00,WUHU21623XXSP,2013-08-24 09:54:00,
2013-08-24 04:59:00,54.7,51.2,30.17,North,0,0.0,0.0,88,0.00,,,0.00,WUHU21623XXSP,2013-08-24 09:59:00,
2013-08-24 05:04:00,54.3,50.8,30.17,NNE,22,0.0,0.0,88,0.00,,,0.00,WUHU21623XXSP,2013-08-24 10:04:00,
2013-08-24 05:09:00,54.1,50.9,30.17,NNE,22,0.0,0.0,89,0.00,,,0.00,WUHU21623XXSP,2013-08-24 10:09:00,
2013-08-24 05:14:00,53.8,50.6,30.17,ENE,67,0.0,0.0,89,0.00,,,0.00,WUHU21623XXSP,2013-08-24 10:14:00,
2013-08-24 05:19:00,53.8,50.6,30.17,East,90,0.0,0.0,89,0.00,,,0.00,WUHU21623XXSP,2013-08-24 10:19:00,
2013-08-24 05:24:00,53.8,50.6,30.17,East,90,0.0,0.0,89,0.00,,,0.00,WUHU21623XXSP,2013-08-24 10:24:00,
2013-08-24 05:29:00,53.4,50.2,30.17,NE,45,0.0,0.0,89,0.00,,,0.00,WUHU21623XXSP,2013-08-24 10:29:00,
2013-08-24 05:34:00,53.4,50.5,30.18,North,0,0.0,0.0,90,0.00,,,0.00,WUHU21623XXSP,2013-08-24 10:34:00,
2013-08-24 05:39:00,53.4,50.5,30.18,North,0,0.0,0.0,90,0.00,,,0.00,WUHU21623XXSP,2013-08-24 10:39:00,
2013-08-24 05:44:00,53.4,50.5,30.18,North,0,0.0,0.0,90,0.00,,,0.00,WUHU21623XXSP,2013-08-24 10:44:00,
2013-08-24 05:49:00,53.2,50.4,30.18,NNE,22,0.0,0.0,90,0.00,,,0.00,WUHU21623XXSP,2013-08-24 10:49:00,
2013-08-24 05:54:00,52.9,50.0,30.18,NNE,22,0.0,0.0,90,0.00,,,0.00,WUHU21623XXSP,2013-08-24 10:54:00,
2013-08-24 05:59:00,52.9,50.3,30.17,NNE,22,0.0,0.0,91,0.00,,,0.00,WUHU21623XXSP,2013-08-24 10:59:00,
2013-08-24 06:04:00,53.2,50.6,30.18,North,0,0.0,0.0,91,0.00,,,0.00,WUHU21623XXSP,2013-08-24 11:04:00,
2013-08-24 06:09:00,53.2,50.6,30.18,North,0,0.0,0.0,91,0.00,,,0.00,WUHU21623XXSP,2013-08-24 11:09:00,
2013-08-24 06:14:00,53.1,50.5,30.18,North,0,0.0,0.0,91,0.00,,,0.00,WUHU21623XXSP,2013-08-24 11:14:00,
2013-08-24 06:19:00,53.2,50.6,30.18,North,0,0.0,0.0,91,0.00,,,0.00,WUHU21623XXSP,2013-08-24 11:19:00,
2013-08-24 06:24:00,53.2,50.9,30.19,North,0,0.0,0.0,92,0.00,,,0.00,WUHU21623XXSP,2013-08-24 11:24:00,
2013-08-24 06:29:00,53.2,50.9,30.19,North,0,0.0,0.0,92,0.00,,,0.00,WUHU21623XXSP,2013-08-24 11:29:00,
2013-08-24 06:34:00,53.2,50.9,30.19,NNE,22,0.0,0.0,92,0.00,,,0.00,WUHU21623XXSP,2013-08-24 11:34:00,
2013-08-24 06:39:00,53.2,50.9,30.19,NNE,22,0.0,0.0,92,0.00,,,0.00,WUHU21623XXSP,2013-08-24 11:39:00,
2013-08-24 06:44:00,53.2,50.9,30.19,NNE,22,0.0,0.0,92,0.00,,,0.00,WUHU21623XXSP,2013-08-24 11:44:00,
2013-08-24 06:49:00,53.2,50.9,30.19,NNE,22,0.0,0.0,92,0.00,,,0.00,WUHU21623XXSP,2013-08-24 11:49:00,
2013-08-24 06:54:00,53.2,50.9,30.19,NE,45,0.0,0.0,92,0.00,,,0.00,WUHU21623XXSP,2013-08-24 11:54:00,
2013-08-24 06:59:00,53.8,51.5,30.19,SSE,157,0.0,0.0,92,0.00,,,0.00,WUHU21623XXSP,2013-08-24 11:59:00,
2013-08-24 07:04:00,54.1,51.8,30.19,ESE,112,0.0,0.0,92,0.00,,,0.00,WUHU21623XXSP,2013-08-24 12:04:00,
2013-08-24 07:09:00,54.5,52.2,30.19,SE,135,0.0,0.0,92,0.00,,,0.00,WUHU21623XXSP,2013-08-24 12:09:00,
2013-08-24 07:14:00,55.6,53.0,30.19,SE,135,0.0,0.0,91,0.00,,,0.00,WUHU21623XXSP,2013-08-24 12:14:00,
2013-08-24 07:19:00,56.1,53.5,30.19,SSE,157,0.0,0.0,91,0.00,,,0.00,WUHU21623XXSP,2013-08-24 12:19:00,
2013-08-24 07:24:00,56.8,54.2,30.19,SSE,157,0.0,0.0,91,0.00,,,0.00,WUHU21623XXSP,2013-08-24 12:24:00,
2013-08-24 07:29:00,57.7,55.1,30.19,South,180,0.0,0.0,91,0.00,,,0.00,WUHU21623XXSP,2013-08-24 12:29:00,
2013-08-24 07:34:00,58.6,56.0,30.19,SSE,157,0.0,0.0,91,0.00,,,0.00,WUHU21623XXSP,2013-08-24 12:34:00,
2013-08-24 07:39:00,59.2,56.3,30.19,SE,135,0.0,0.0,90,0.00,,,0.00,WUHU21623XXSP,2013-08-24 12:39:00,
2013-08-24 07:44:00,60.1,57.2,30.19,SSE,157,0.0,0.0,90,0.00,,,0.00,WUHU21623XXSP,2013-08-24 12:44:00,
2013-08-24 07:49:00,61.2,58.3,30.19,SSE,157,0.0,0.0,90,0.00,,,0.00,WUHU21623XXSP,2013-08-24 12:49:00,
2013-08-24 07:54:00,62.2,59.0,30.19,SE,135,0.0,0.0,89,0.00,,,0.00,WUHU21623XXSP,2013-08-24 12:54:00,
2013-08-24 07:59:00,63.3,60.1,30.19,SW,225,0.0,1.1,89,0.00,,,0.00,WUHU21623XXSP,2013-08-24 12:59:00,
2013-08-24 08:04:00,64.8,61.2,30.19,South,180,0.0,2.5,88,0.00,,,0.00,WUHU21623XXSP,2013-08-24 13:04:00,
2013-08-24 08:09:00,66.0,62.0,30.19,NNE,22,0.0,2.5,87,0.00,,,0.00,WUHU21623XXSP,2013-08-24 13:09:00,
2013-08-24 08:14:00,67.3,62.6,30.20,SE,135,0.0,0.9,85,0.00,,,0.00,WUHU21623XXSP,2013-08-24 13:14:00,
2013-08-24 08:19:00,68.2,62.8,30.19,SSW,202,0.0,0.0,83,0.00,,,0.00,WUHU21623XXSP,2013-08-24 13:19:00,
2013-08-24 08:24:00,69.4,63.3,30.19,NE,45,0.0,1.6,81,0.00,,,0.00,WUHU21623XXSP,2013-08-24 13:24:00,
2013-08-24 08:29:00,70.2,63.3,30.19,SE,135,0.0,1.6,79,0.00,,,0.00,WUHU21623XXSP,2013-08-24 13:29:00,
2013-08-24 08:34:00,70.5,62.5,30.19,East,90,1.1,3.4,76,0.00,,,0.00,WUHU21623XXSP,2013-08-24 13:34:00,
2013-08-24 08:39:00,71.2,62.7,30.20,SSW,202,0.0,3.4,75,0.00,,,0.00,WUHU21623XXSP,2013-08-24 13:39:00,
2013-08-24 08:44:00,71.4,62.7,30.19,South,180,1.8,3.1,74,0.00,,,0.00,WUHU21623XXSP,2013-08-24 13:44:00,
2013-08-24 08:49:00,71.8,61.9,30.20,SSE,157,0.0,4.3,71,0.00,,,0.00,WUHU21623XXSP,2013-08-24 13:49:00,
2013-08-24 08:54:00,72.1,61.4,30.19,SE,135,0.0,4.3,69,0.00,,,0.00,WUHU21623XXSP,2013-08-24 13:54:00,
2013-08-24 08:59:00,72.7,61.5,30.20,SE,135,0.0,5.1,68,0.00,,,0.00,WUHU21623XXSP,2013-08-24 13:59:00,
2013-08-24 09:04:00,72.5,59.6,30.19,SSW,202,4.0,8.9,64,0.00,,,0.00,WUHU21623XXSP,2013-08-24 14:04:00,
2013-08-24 09:09:00,73.0,60.5,30.19,South,180,3.6,8.9,65,0.00,,,0.00,WUHU21623XXSP,2013-08-24 14:09:00,
2013-08-24 09:14:00,73.6,60.2,30.19,SSW,202,4.7,8.1,63,0.00,,,0.00,WUHU21623XXSP,2013-08-24 14:14:00,
2013-08-24 09:19:00,73.8,59.0,30.19,SW,225,8.7,8.7,60,0.00,,,0.00,WUHU21623XXSP,2013-08-24 14:19:00,
2013-08-24 09:24:00,73.8,59.0,30.18,SSW,202,4.9,10.5,60,0.00,,,0.00,WUHU21623XXSP,2013-08-24 14:24:00,
2013-08-24 09:29:00,74.1,58.4,30.18,SW,225,4.7,11.6,58,0.00,,,0.00,WUHU21623XXSP,2013-08-24 14:29:00,
2013-08-24 09:34:00,74.3,58.5,30.19,SSE,157,5.1,11.6,58,0.00,,,0.00,WUHU21623XXSP,2013-08-24 14:34:00,
2013-08-24 09:39:00,74.5,58.2,30.19,SW,225,5.8,13.0,57,0.00,,,0.00,WUHU21623XXSP,2013-08-24 14:39:00,
2013-08-24 09:44:00,75.0,59.3,30.19,NE,45,0.0,13.0,58,0.00,,,0.00,WUHU21623XXSP,2013-08-24 14:44:00,
2013-08-24 09:49:00,75.7,59.4,30.19,SSE,157,2.9,8.1,57,0.00,,,0.00,WUHU21623XXSP,2013-08-24 14:49:00,
2013-08-24 09:54:00,75.7,58.9,30.19,SSW,202,4.0,9.8,56,0.00,,,0.00,WUHU21623XXSP,2013-08-24 14:54:00,
2013-08-24 09:59:00,76.3,59.4,30.19,SSW,202,8.5,9.8,56,0.00,,,0.00,WUHU21623XXSP,2013-08-24 14:59:00,
2013-08-24 10:04:00,76.6,58.7,30.19,SW,225,6.3,13.6,54,0.00,,,0.00,WUHU21623XXSP,2013-08-24 15:04:00,
2013-08-24 10:09:00,76.3,58.9,30.19,South,180,8.7,13.6,55,0.00,,,0.00,WUHU21623XXSP,2013-08-24 15:09:00,
2013-08-24 10:14:00,76.1,58.2,30.18,South,180,12.8,12.8,54,0.00,,,0.00,WUHU21623XXSP,2013-08-24 15:14:00,
2013-08-24 10:19:00,75.9,58.1,30.19,SSW,202,6.5,12.8,54,0.00,,,0.00,WUHU21623XXSP,2013-08-24 15:19:00,
2013-08-24 10:24:00,76.3,58.9,30.19,SSW,202,4.5,12.8,55,0.00,,,0.00,WUHU21623XXSP,2013-08-24 15:24:00,
2013-08-24 10:29:00,76.6,59.2,30.18,SSW,202,5.4,11.4,55,0.00,,,0.00,WUHU21623XXSP,2013-08-24 15:29:00,
2013-08-24 10:34:00,77.2,59.2,30.19,South,180,6.3,11.4,54,0.00,,,0.00,WUHU21623XXSP,2013-08-24 15:34:00,
2013-08-24 10:39:00,77.2,59.2,30.19,SW,225,10.3,12.1,54,0.00,,,0.00,WUHU21623XXSP,2013-08-24 15:39:00,
2013-08-24 10:44:00,76.8,59.4,30.19,SSW,202,7.8,13.0,55,0.00,,,0.00,WUHU21623XXSP,2013-08-24 15:44:00,
2013-08-24 10:49:00,77.2,59.2,30.19,South,180,5.6,13.0,54,0.00,,,0.00,WUHU21623XXSP,2013-08-24 15:49:00,
2013-08-24 10:54:00,77.9,59.9,30.19,SW,225,6.3,10.5,54,0.00,,,0.00,WUHU21623XXSP,2013-08-24 15:54:00,
2013-08-24 10:59:00,77.7,59.2,30.19,SW,225,8.3,10.5,53,0.00,,,0.00,WUHU21623XXSP,2013-08-24 15:59:00,
2013-08-24 11:04:00,77.7,59.2,30.18,SSW,202,7.6,10.5,53,0.00,,,0.00,WUHU21623XXSP,2013-08-24 16:04:00,
2013-08-24 11:09:00,77.7,59.2,30.19,SSW,202,6.3,12.3,53,0.00,,,0.00,WUHU21623XXSP,2013-08-24 16:09:00,
2013-08-24 11:14:00,78.1,59.5,30.19,SW,225,6.3,12.3,53,0.00,,,0.00,WUHU21623XXSP,2013-08-24 16:14:00,
2013-08-24 11:19:00,78.1,60.0,30.19,SSW,202,4.5,10.5,54,0.00,,,0.00,WUHU21623XXSP,2013-08-24 16:19:00,
2013-08-24 11:24:00,78.1,59.5,30.18,South,180,3.6,11.9,53,0.00,,,0.00,WUHU21623XXSP,2013-08-24 16:24:00,
2013-08-24 11:29:00,78.6,60.0,30.18,South,180,6.3,11.9,53,0.00,,,0.00,WUHU21623XXSP,2013-08-24 16:29:00,
2013-08-24 11:34:00,79.3,60.7,30.18,SSW,202,4.5,11.9,53,0.00,,,0.00,WUHU21623XXSP,2013-08-24 16:34:00,
2013-08-24 11:39:00,79.3,59.6,30.18,West,270,2.2,12.1,51,0.00,,,0.00,WUHU21623XXSP,2013-08-24 16:39:00,
2013-08-24 11:44:00,78.6,59.5,30.18,SSW,202,4.3,18.3,52,0.00,,,0.00,WUHU21623XXSP,2013-08-24 16:44:00,
2013-08-24 11:49:00,79.0,59.8,30.18,SW,225,8.9,18.3,52,0.00,,,0.00,WUHU21623XXSP,2013-08-24 16:49:00,
2013-08-24 11:54:00,79.2,60.0,30.18,SW,225,6.3,15.0,52,0.00,,,0.00,WUHU21623XXSP,2013-08-24 16:54:00,
2013-08-24 11:59:00,79.9,60.1,30.18,WSW,247,1.6,11.9,51,0.00,,,0.00,WUHU21623XXSP,2013-08-24 16:59:00,
2013-08-24 12:04:00,80.4,61.1,30.17,SW,225,4.7,8.9,52,0.00,,,0.00,WUHU21623XXSP,2013-08-24 17:04:00,
2013-08-24 12:09:00,79.9,59.0,30.18,SW,225,9.2,10.5,49,0.00,,,0.00,WUHU21623XXSP,2013-08-24 17:09:00,
2013-08-24 12:14:00,79.5,59.3,30.17,SSW,202,13.4,14.5,50,0.00,,,0.00,WUHU21623XXSP,2013-08-24 17:14:00,
2013-08-24 12:19:00,79.7,59.5,30.17,SW,225,11.2,14.5,50,0.00,,,0.00,WUHU21623XXSP,2013-08-24 17:19:00,
2013-08-24 12:24:00,80.2,60.5,30.17,SW,225,7.8,13.2,51,0.00,,,0.00,WUHU21623XXSP,2013-08-24 17:24:00,
2013-08-24 12:29:00,80.4,60.1,30.17,SSW,202,7.2,13.2,50,0.00,,,0.00,WUHU21623XXSP,2013-08-24 17:29:00,
2013-08-24 12:34:00,80.4,60.1,30.17,South,180,4.5,12.5,50,0.00,,,0.00,WUHU21623XXSP,2013-08-24 17:34:00,
2013-08-24 12:39:00,81.0,60.0,30.17,South,180,8.3,11.4,49,0.00,,,0.00,WUHU21623XXSP,2013-08-24 17:39:00,
2013-08-24 12:44:00,80.4,59.5,30.17,SSW,202,7.6,10.3,49,0.00,,,0.00,WUHU21623XXSP,2013-08-24 17:44:00,
2013-08-24 12:49:00,81.0,60.6,30.17,SW,225,6.9,12.1,50,0.00,,,0.00,WUHU21623XXSP,2013-08-24 17:49:00,
2013-08-24 12:54:00,80.8,60.4,30.17,SW,225,8.5,12.1,50,0.00,,,0.00,WUHU21623XXSP,2013-08-24 17:54:00,
2013-08-24 12:59:00,81.1,61.3,30.17,South,180,6.3,11.4,51,0.00,,,0.00,WUHU21623XXSP,2013-08-24 17:59:00,
2013-08-24 13:04:00,81.3,60.3,30.17,WSW,247,6.3,11.4,49,0.00,,,0.00,WUHU21623XXSP,2013-08-24 18:04:00,
2013-08-24 13:09:00,81.3,60.3,30.17,SW,225,9.4,10.3,49,0.00,,,0.00,WUHU21623XXSP,2013-08-24 18:09:00,
2013-08-24 13:14:00,81.1,60.7,30.17,South,180,4.0,10.5,50,0.00,,,0.00,WUHU21623XXSP,2013-08-24 18:14:00,
2013-08-24 13:19:00,81.3,60.9,30.17,SSW,202,2.5,10.5,50,0.00,,,0.00,WUHU21623XXSP,2013-08-24 18:19:00,
2013-08-24 13:24:00,81.9,60.8,30.17,South,180,6.7,9.6,49,0.00,,,0.00,WUHU21623XXSP,2013-08-24 18:24:00,
2013-08-24 13:29:00,81.5,60.5,30.17,SW,225,6.5,12.3,49,0.00,,,0.00,WUHU21623XXSP,2013-08-24 18:29:00,
2013-08-24 13:34:00,82.4,61.9,30.16,South,180,2.7,12.3,50,0.00,,,0.00,WUHU21623XXSP,2013-08-24 18:34:00,
2013-08-24 13:39:00,82.4,61.3,30.16,WSW,247,2.9,6.5,49,0.00,,,0.00,WUHU21623XXSP,2013-08-24 18:39:00,
2013-08-24 13:44:00,82.6,62.1,30.16,SSW,202,3.6,7.4,50,0.00,,,0.00,WUHU21623XXSP,2013-08-24 18:44:00,
2013-08-24 13:49:00,82.2,62.2,30.16,SE,135,2.7,8.1,51,0.00,,,0.00,WUHU21623XXSP,2013-08-24 18:49:00,
2013-08-24 13:54:00,82.2,61.7,30.16,SSW,202,5.8,10.5,50,0.00,,,0.00,WUHU21623XXSP,2013-08-24 18:54:00,
2013-08-24 13:59:00,82.6,62.1,30.16,SW,225,5.1,10.5,50,0.00,,,0.00,WUHU21623XXSP,2013-08-24 18:59:00,
2013-08-24 14:04:00,82.8,62.2,30.16,South,180,3.4,10.3,50,0.00,,,0.00,WUHU21623XXSP,2013-08-24 19:04:00,
2013-08-24 14:09:00,82.9,62.4,30.16,WSW,247,0.9,10.3,50,0.00,,,0.00,WUHU21623XXSP,2013-08-24 19:09:00,
2013-08-24 14:14:00,83.1,62.6,30.16,SW,225,8.1,11.0,50,0.00,,,0.00,WUHU21623XXSP,2013-08-24 19:14:00,
2013-08-24 14:19:00,83.5,63.5,30.16,SW,225,11.4,11.4,51,0.00,,,0.00,WUHU21623XXSP,2013-08-24 19:19:00,
2013-08-24 14:24:00,83.3,62.2,30.16,SSW,202,15.7,15.7,49,0.00,,,0.00,WUHU21623XXSP,2013-08-24 19:24:00,
2013-08-24 14:29:00,82.9,62.9,30.15,South,180,7.8,15.7,51,0.00,,,0.00,WUHU21623XXSP,2013-08-24 19:29:00,
2013-08-24 14:34:00,82.9,61.8,30.14,SSW,202,7.4,15.7,49,0.00,,,0.00,WUHU21623XXSP,2013-08-24 19:34:00,
2013-08-24 14:39:00,82.6,62.1,30.15,SSW,202,6.0,12.5,50,0.00,,,0.00,WUHU21623XXSP,2013-08-24 19:39:00,
2013-08-24 14:44:00,83.1,63.1,30.15,SSW,202,5.4,10.3,51,0.00,,,0.00,WUHU21623XXSP,2013-08-24 19:44:00,
2013-08-24 14:49:00,83.1,63.1,30.14,SW,225,6.7,10.3,51,0.00,,,0.00,WUHU21623XXSP,2013-08-24 19:49:00,
2013-08-24 14:54:00,83.3,63.8,30.14,SSW,202,4.5,8.3,52,0.00,,,0.00,WUHU21623XXSP,2013-08-24 19:54:00,
2013-08-24 14:59:00,82.8,63.3,30.14,SSW,202,7.8,7.8,52,0.00,,,0.00,WUHU21623XXSP,2013-08-24 19:59:00,
2013-08-24 15:04:00,82.0,62.1,30.14,WSW,247,4.3,10.3,51,0.00,,,0.00,WUHU21623XXSP,2013-08-24 20:04:00,
2013-08-24 15:09:00,82.9,62.9,30.13,SW,225,7.6,10.5,51,0.00,,,0.00,WUHU21623XXSP,2013-08-24 20:09:00,
2013-08-24 15:14:00,83.1,63.1,30.13,South,180,3.6,11.9,51,0.00,,,0.00,WUHU21623XXSP,2013-08-24 20:14:00,
2013-08-24 15:19:00,82.4,62.4,30.14,South,180,6.3,11.9,51,0.00,,,0.00,WUHU21623XXSP,2013-08-24 20:19:00,
2013-08-24 15:24:00,81.7,62.3,30.13,SW,225,6.3,10.1,52,0.00,,,0.00,WUHU21623XXSP,2013-08-24 20:24:00,
2013-08-24 15:29:00,81.5,62.6,30.13,SSW,202,4.3,9.2,53,0.00,,,0.00,WUHU21623XXSP,2013-08-24 20:29:00,
2013-08-24 15:34:00,82.4,64.0,30.13,SSW,202,3.1,8.3,54,0.00,,,0.00,WUHU21623XXSP,2013-08-24 20:34:00,
2013-08-24 15:39:00,82.8,63.8,30.13,SW,225,7.4,10.7,53,0.00,,,0.00,WUHU21623XXSP,2013-08-24 20:39:00,
2013-08-24 15:44:00,83.1,64.2,30.13,South,180,3.4,10.7,53,0.00,,,0.00,WUHU21623XXSP,2013-08-24 20:44:00,
2013-08-24 15:49:00,83.5,64.0,30.12,SW,225,5.8,10.7,52,0.00,,,0.00,WUHU21623XXSP,2013-08-24 20:49:00,
2013-08-24 15:54:00,83.1,63.1,30.12,SE,135,6.0,10.7,51,0.00,,,0.00,WUHU21623XXSP,2013-08-24 20:54:00,
2013-08-24 15:59:00,83.3,63.8,30.12,SSW,202,3.6,10.5,52,0.00,,,0.00,WUHU21623XXSP,2013-08-24 20:59:00,
2013-08-24 16:04:00,83.1,63.6,30.12,SSW,202,7.6,10.5,52,0.00,,,0.00,WUHU21623XXSP,2013-08-24 21:04:00,
2013-08-24 16:09:00,82.9,62.9,30.12,SW,225,5.8,12.1,51,0.00,,,0.00,WUHU21623XXSP,2013-08-24 21:09:00,
2013-08-24 16:14:00,83.1,63.6,30.12,SSW,202,4.0,12.8,52,0.00,,,0.00,WUHU21623XXSP,2013-08-24 21:14:00,
2013-08-24 16:19:00,83.5,64.5,30.12,SW,225,5.8,12.8,53,0.00,,,0.00,WUHU21623XXSP,2013-08-24 21:19:00,
2013-08-24 16:24:00,83.1,64.2,30.12,South,180,6.3,12.3,53,0.00,,,0.00,WUHU21623XXSP,2013-08-24 21:24:00,
2013-08-24 16:29:00,83.1,64.7,30.12,South,180,5.1,12.3,54,0.00,,,0.00,WUHU21623XXSP,2013-08-24 21:29:00,
2013-08-24 16:34:00,83.1,64.2,30.11,SW,225,12.1,16.3,53,0.00,,,0.00,WUHU21623XXSP,2013-08-24 21:34:00,
2013-08-24 16:39:00,83.1,64.7,30.11,SSW,202,5.8,16.3,54,0.00,,,0.00,WUHU21623XXSP,2013-08-24 21:39:00,
2013-08-24 16:44:00,83.5,65.0,30.11,SSW,202,5.6,10.3,54,0.00,,,0.00,WUHU21623XXSP,2013-08-24 21:44:00,
2013-08-24 16:49:00,82.9,65.0,30.11,SSW,202,5.8,11.6,55,0.00,,,0.00,WUHU21623XXSP,2013-08-24 21:49:00,
2013-08-24 16:54:00,82.9,64.5,30.12,SSW,202,8.7,11.6,54,0.00,,,0.00,WUHU21623XXSP,2013-08-24 21:54:00,
2013-08-24 16:59:00,82.9,65.0,30.11,South,180,6.7,10.7,55,0.00,,,0.00,WUHU21623XXSP,2013-08-24 21:59:00,
2013-08-24 17:04:00,83.1,65.2,30.11,SW,225,4.5,10.7,55,0.00,,,0.00,WUHU21623XXSP,2013-08-24 22:04:00,
2013-08-24 17:09:00,83.1,65.2,30.11,SW,225,10.7,11.4,55,0.00,,,0.00,WUHU21623XXSP,2013-08-24 22:09:00,
2013-08-24 17:14:00,82.6,65.2,30.11,SSW,202,4.3,11.4,56,0.00,,,0.00,WUHU21623XXSP,2013-08-24 22:14:00,
2013-08-24 17:19:00,82.2,65.4,30.11,South,180,3.1,11.6,57,0.00,,,0.00,WUHU21623XXSP,2013-08-24 22:19:00,
2013-08-24 17:24:00,82.4,65.5,30.10,SSW,202,6.7,11.6,57,0.00,,,0.00,WUHU21623XXSP,2013-08-24 22:24:00,
2013-08-24 17:29:00,82.2,65.4,30.10,SW,225,4.7,11.6,57,0.00,,,0.00,WUHU21623XXSP,2013-08-24 22:29:00,
2013-08-24 17:34:00,82.2,65.9,30.11,SW,225,9.2,11.6,58,0.00,,,0.00,WUHU21623XXSP,2013-08-24 22:34:00,
2013-08-24 17:39:00,82.6,66.2,30.11,SSW,202,4.3,9.2,58,0.00,,,0.00,WUHU21623XXSP,2013-08-24 22:39:00,
2013-08-24 17:44:00,82.2,65.9,30.10,SSW,202,12.5,12.5,58,0.00,,,0.00,WUHU21623XXSP,2013-08-24 22:44:00,
2013-08-24 17:49:00,81.9,65.6,30.11,SSW,202,7.8,12.5,58,0.00,,,0.00,WUHU21623XXSP,2013-08-24 22:49:00,
2013-08-24 17:54:00,81.5,65.8,30.11,SSW,202,10.5,10.7,59,0.00,,,0.00,WUHU21623XXSP,2013-08-24 22:54:00,
2013-08-24 17:59:00,81.1,65.4,30.11,South,180,2.9,10.7,59,0.00,,,0.00,WUHU21623XXSP,2013-08-24 22:59:00,
2013-08-24 18:04:00,81.1,66.0,30.11,South,180,3.1,10.5,60,0.00,,,0.00,WUHU21623XXSP,2013-08-24 23:04:00,
2013-08-24 18:09:00,81.0,65.8,30.10,SSW,202,6.0,9.2,60,0.00,,,0.00,WUHU21623XXSP,2013-08-24 23:09:00,
2013-08-24 18:14:00,81.0,65.8,30.10,SSW,202,4.5,9.2,60,0.00,,,0.00,WUHU21623XXSP,2013-08-24 23:14:00,
2013-08-24 18:19:00,80.8,65.6,30.11,SSW,202,3.4,10.5,60,0.00,,,0.00,WUHU21623XXSP,2013-08-24 23:19:00,
2013-08-24 18:24:00,80.8,65.6,30.11,SW,225,5.1,10.5,60,0.00,,,0.00,WUHU21623XXSP,2013-08-24 23:24:00,
2013-08-24 18:29:00,80.8,65.6,30.10,South,180,2.5,8.5,60,0.00,,,0.00,WUHU21623XXSP,2013-08-24 23:29:00,
2013-08-24 18:34:00,80.4,65.8,30.10,South,180,5.4,8.5,61,0.00,,,0.00,WUHU21623XXSP,2013-08-24 23:34:00,
2013-08-24 18:39:00,80.2,65.6,30.10,South,180,3.8,8.3,61,0.00,,,0.00,WUHU21623XXSP,2013-08-24 23:39:00,
2013-08-24 18:44:00,79.9,65.7,30.10,SW,225,4.9,8.3,62,0.00,,,0.00,WUHU21623XXSP,2013-08-24 23:44:00,
2013-08-24 18:49:00,79.7,65.6,30.10,SSW,202,4.7,8.1,62,0.00,,,0.00,WUHU21623XXSP,2013-08-24 23:49:00,
2013-08-24 18:54:00,79.5,65.8,30.10,SSE,157,4.9,8.1,63,0.00,,,0.00,WUHU21623XXSP,2013-08-24 23:54:00,
2013-08-24 18:59:00,79.2,65.5,30.09,SSW,202,2.5,6.5,63,0.00,,,0.00,WUHU21623XXSP,2013-08-24 23:59:00,
2013-08-24 19:04:00,79.0,65.8,30.10,SSW,202,4.9,6.5,64,0.00,,,0.00,WUHU21623XXSP,2013-08-25 00:04:00,
2013-08-24 19:09:00,78.6,65.4,30.10,South,180,0.0,6.3,64,0.00,,,0.00,WUHU21623XXSP,2013-08-25 00:09:00,
2013-08-24 19:14:00,78.4,65.7,30.10,SSW,202,2.0,6.3,65,0.00,,,0.00,WUHU21623XXSP,2013-08-25 00:14:00,
2013-08-24 19:19:00,78.1,65.3,30.10,South,180,1.1,5.4,65,0.00,,,0.00,WUHU21623XXSP,2013-08-25 00:19:00,
2013-08-24 19:24:00,77.7,65.4,30.10,SSW,202,0.9,3.1,66,0.00,,,0.00,WUHU21623XXSP,2013-08-25 00:24:00,
2013-08-24 19:29:00,77.4,65.5,30.10,SSW,202,2.0,4.7,67,0.00,,,0.00,WUHU21623XXSP,2013-08-25 00:29:00,
2013-08-24 19:34:00,76.8,65.5,30.10,SSW,202,0.9,4.7,68,0.00,,,0.00,WUHU21623XXSP,2013-08-25 00:34:00,
2013-08-24 19:39:00,76.6,65.3,30.10,SE,135,0.0,2.2,68,0.00,,,0.00,WUHU21623XXSP,2013-08-25 00:39:00,
2013-08-24 19:44:00,75.7,65.3,30.10,South,180,0.0,2.5,70,0.00,,,0.00,WUHU21623XXSP,2013-08-25 00:44:00,
2013-08-24 19:49:00,75.2,65.2,30.10,South,180,0.0,3.1,71,0.00,,,0.00,WUHU21623XXSP,2013-08-25 00:49:00,
2013-08-24 19:54:00,74.8,64.8,30.11,SSE,157,0.0,3.1,71,0.00,,,0.00,WUHU21623XXSP,2013-08-25 00:54:00,
2013-08-24 19:59:00,74.5,64.9,30.11,SSE,157,0.0,1.6,72,0.00,,,0.00,WUHU21623XXSP,2013-08-25 00:59:00,
2013-08-24 20:04:00,73.9,64.8,30.11,SE,135,0.0,2.2,73,0.00,,,0.00,WUHU21623XXSP,2013-08-25 01:04:00,
2013-08-24 20:09:00,73.6,64.8,30.11,SE,135,0.0,2.2,74,0.00,,,0.00,WUHU21623XXSP,2013-08-25 01:09:00,
2013-08-24 20:14:00,73.2,64.8,30.11,South,180,1.3,1.3,75,0.00,,,0.00,WUHU21623XXSP,2013-08-25 01:14:00,
2013-08-24 20:19:00,73.4,65.0,30.12,SSE,157,0.0,3.4,75,0.00,,,0.00,WUHU21623XXSP,2013-08-25 01:19:00,
2013-08-24 20:24:00,73.2,65.2,30.12,SW,225,0.9,3.6,76,0.00,,,0.00,WUHU21623XXSP,2013-08-25 01:24:00,
2013-08-24 20:29:00,73.8,65.8,30.11,SSW,202,3.1,4.5,76,0.00,,,0.00,WUHU21623XXSP,2013-08-25 01:29:00,
2013-08-24 20:34:00,73.8,65.4,30.11,South,180,1.6,4.5,75,0.00,,,0.00,WUHU21623XXSP,2013-08-25 01:34:00,
2013-08-24 20:39:00,73.6,65.2,30.11,SW,225,2.9,4.7,75,0.00,,,0.00,WUHU21623XXSP,2013-08-25 01:39:00,
2013-08-24 20:44:00,73.8,65.4,30.12,South,180,2.5,4.7,75,0.00,,,0.00,WUHU21623XXSP,2013-08-25 01:44:00,
2013-08-24 20:49:00,73.6,64.8,30.12,SSW,202,1.1,4.0,74,0.00,,,0.00,WUHU21623XXSP,2013-08-25 01:49:00,
2013-08-24 20:54:00,73.2,64.5,30.12,SSW,202,4.9,4.9,74,0.00,,,0.00,WUHU21623XXSP,2013-08-25 01:54:00,
2013-08-24 20:59:00,73.2,64.5,30.12,SSE,157,3.1,4.9,74,0.00,,,0.00,WUHU21623XXSP,2013-08-25 01:59:00,
2013-08-24 21:04:00,72.7,64.3,30.12,South,180,2.9,4.9,75,0.00,,,0.00,WUHU21623XXSP,2013-08-25 02:04:00,
2013-08-24 21:09:00,72.1,64.1,30.12,SSE,157,0.0,3.4,76,0.00,,,0.00,WUHU21623XXSP,2013-08-25 02:09:00,
2013-08-24 21:14:00,71.8,63.8,30.12,South,180,2.2,2.9,76,0.00,,,0.00,WUHU21623XXSP,2013-08-25 02:14:00,
2013-08-24 21:19:00,71.4,63.4,30.13,SE,135,0.0,2.9,76,0.00,,,0.00,WUHU21623XXSP,2013-08-25 02:19:00,
2013-08-24 21:24:00,71.1,63.4,30.12,SSE,157,0.0,1.8,77,0.00,,,0.00,WUHU21623XXSP,2013-08-25 02:24:00,
2013-08-24 21:29:00,70.7,63.1,30.13,SE,135,0.0,0.0,77,0.00,,,0.00,WUHU21623XXSP,2013-08-25 02:29:00,
2013-08-24 21:34:00,70.3,63.1,30.12,SSE,157,0.0,0.0,78,0.00,,,0.00,WUHU21623XXSP,2013-08-25 02:34:00,
2013-08-24 21:39:00,70.2,62.9,30.13,SE,135,0.0,0.0,78,0.00,,,0.00,WUHU21623XXSP,2013-08-25 02:39:00,
2013-08-24 21:44:00,70.0,62.7,30.13,SSE,157,0.0,1.3,78,0.00,,,0.00,WUHU21623XXSP,2013-08-25 02:44:00,
2013-08-24 21:49:00,70.0,62.7,30.13,SSE,157,0.0,3.8,78,0.00,,,0.00,WUHU21623XXSP,2013-08-25 02:49:00,
2013-08-24 21:54:00,70.3,63.1,30.13,SSW,202,0.0,3.8,78,0.00,,,0.00,WUHU21623XXSP,2013-08-25 02:54:00,
2013-08-24 21:59:00,70.3,63.1,30.12,South,180,0.0,3.4,78,0.00,,,0.00,WUHU21623XXSP,2013-08-25 02:59:00,
2013-08-24 22:04:00,70.3,63.1,30.12,SE,135,1.6,2.9,78,0.00,,,0.00,WUHU21623XXSP,2013-08-25 03:04:00,
2013-08-24 22:09:00,70.5,62.9,30.12,SSW,202,0.0,4.5,77,0.00,,,0.00,WUHU21623XXSP,2013-08-25 03:09:00,
2013-08-24 22:14:00,70.7,62.7,30.12,SW,225,1.1,4.5,76,0.00,,,0.00,WUHU21623XXSP,2013-08-25 03:14:00,
2013-08-24 22:19:00,70.7,62.7,30.12,SSW,202,2.7,4.3,76,0.00,,,0.00,WUHU21623XXSP,2013-08-25 03:19:00,
2013-08-24 22:24:00,70.9,62.9,30.12,SSW,202,2.0,4.7,76,0.00,,,0.00,WUHU21623XXSP,2013-08-25 03:24:00,
2013-08-24 22:29:00,70.7,62.7,30.12,South,180,1.1,4.7,76,0.00,,,0.00,WUHU21623XXSP,2013-08-25 03:29:00,
2013-08-24 22:34:00,70.7,62.7,30.12,South,180,0.0,4.7,76,0.00,,,0.00,WUHU21623XXSP,2013-08-25 03:34:00,
2013-08-24 22:39:00,70.3,62.7,30.12,SSE,157,0.9,4.7,77,0.00,,,0.00,WUHU21623XXSP,2013-08-25 03:39:00,
2013-08-24 22:44:00,70.3,62.3,30.12,SE,135,0.0,4.3,76,0.00,,,0.00,WUHU21623XXSP,2013-08-25 03:44:00,
2013-08-24 22:49:00,70.3,62.3,30.11,South,180,0.0,4.9,76,0.00,,,0.00,WUHU21623XXSP,2013-08-25 03:49:00,
2013-08-24 22:54:00,70.3,62.3,30.11,SW,225,2.5,4.9,76,0.00,,,0.00,WUHU21623XXSP,2013-08-25 03:54:00,
2013-08-24 22:59:00,70.3,62.3,30.11,SE,135,1.3,5.4,76,0.00,,,0.00,WUHU21623XXSP,2013-08-25 03:59:00,
2013-08-24 23:01:00,70.5,62.5,30.10,SSW,202,0.0,6.7,76,0.00,,,0.00,WUHU21623XXSP,2013-08-25 04:01:00,
2013-08-24 23:02:00,70.5,62.2,30.10,SSE,157,2.7,6.7,75,0.00,,,0.00,WUHU21623XXSP,2013-08-25 04:02:00,
2013-08-24 23:07:00,70.5,62.2,30.11,SSW,202,3.1,7.4,75,0.00,,,0.00,WUHU21623XXSP,2013-08-25 04:07:00,
2013-08-24 23:12:00,70.7,62.3,30.11,SSW,202,1.3,9.4,75,0.00,,,0.00,WUHU21623XXSP,2013-08-25 04:12:00,
2013-08-24 23:17:00,70.7,62.3,30.11,South,180,3.1,9.4,75,0.00,,,0.00,WUHU21623XXSP,2013-08-25 04:17:00,
2013-08-24 23:22:00,70.7,62.3,30.11,South,180,4.7,8.1,75,0.00,,,0.00,WUHU21623XXSP,2013-08-25 04:22:00,
2013-08-24 23:27:00,70.9,62.5,30.11,South,180,3.8,10.1,75,0.00,,,0.00,WUHU21623XXSP,2013-08-25 04:27:00,
2013-08-24 23:32:00,70.9,62.5,30.11,South,180,2.9,10.1,75,0.00,,,0.00,WUHU21623XXSP,2013-08-25 04:32:00,
2013-08-24 23:37:00,70.9,62.5,30.11,SSW,202,3.6,6.9,75,0.00,,,0.00,WUHU21623XXSP,2013-08-25 04:37:00,
2013-08-24 23:42:00,70.5,62.5,30.11,SSW,202,3.8,6.9,76,0.00,,,0.00,WUHU21623XXSP,2013-08-25 04:42:00,
2013-08-24 23:47:00,70.5,62.5,30.11,SSW,202,3.8,4.7,76,0.00,,,0.00,WUHU21623XXSP,2013-08-25 04:47:00,
2013-08-24 23:52:00,70.5,62.5,30.11,South,180,2.9,6.5,76,0.00,,,0.00,WUHU21623XXSP,2013-08-25 04:52:00,
2013-08-24 23:57:00,70.3,62.7,30.11,South,180,3.6,6.7,77,0.00,,,0.00,WUHU21623XXSP,2013-08-25 04:57:00,